KMOT

Minot International Airport

Minot, North Dakota, USA
KMOT 151208Z 1512/1612 21010KT P6SM SKC
Issued Valid From Valid To
Aug-15 @ 12:08 UTC
(33 minutes ago)
Aug-15 @ 12:00 UTC
(41 minutes ago)
Aug-16 @ 12:00 UTC
(in 23 hours)
Aug-15 @ 12:00 to Aug-16 @ 12:00
KMOT 151208Z 1512/1612 21010KT P6SM SKC
Wind Visibility Clouds
210° at 10 knots Greater than 6 miles
  • Clear skies
KMOT 151208Z 1512/1612 21010KT P6SM SKC
Issued Aug-15 @ 12:08 UTC
(33 minutes ago)
Valid From Aug-15 @ 12:00 UTC
(41 minutes ago)
Valid To Aug-16 @ 12:00 UTC
(in 23 hours)
Aug-15 @ 12:00 - Aug-16 @ 12:00
Wind Visibility
210° at 10 knots Greater than 6 miles
Clouds
  • Clear skies